createdAt,value
2019-01-20T00:00:47.205Z,13.55
2019-01-20T00:03:13.191Z,13.90
2019-01-20T00:05:39.193Z,11.90
2019-01-20T00:08:05.175Z,13.15
2019-01-20T00:10:31.211Z,13.67
2019-01-20T00:12:57.245Z,11.75
2019-01-20T00:15:23.229Z,12.32
2019-01-20T00:17:49.322Z,11.50
2019-01-20T00:20:15.402Z,12.55
2019-01-20T00:22:41.346Z,11.97
2019-01-20T00:25:07.390Z,12.17
2019-01-20T00:27:33.374Z,13.93
2019-01-20T00:29:59.352Z,14.07
2019-01-20T00:32:25.359Z,12.60
2019-01-20T00:34:51.384Z,11.85
2019-01-20T00:37:17.410Z,16.17
2019-01-20T00:39:43.415Z,19.83
2019-01-20T00:42:09.382Z,17.73
2019-01-20T00:44:35.375Z,22.73
2019-01-20T00:47:01.397Z,16.62
2019-01-20T00:49:27.393Z,14.45
2019-01-20T00:51:53.415Z,11.93
2019-01-20T00:54:19.408Z,13.27
2019-01-20T00:56:45.402Z,14.27
2019-01-20T00:59:11.414Z,14.75
2019-01-20T01:01:37.401Z,13.98
2019-01-20T01:04:03.510Z,14.82
2019-01-20T01:06:29.511Z,16.87
2019-01-20T01:08:55.503Z,14.37
2019-01-20T01:11:21.507Z,16.45
2019-01-20T01:13:47.488Z,17.58
2019-01-20T01:16:13.470Z,14.43
2019-01-20T01:18:39.490Z,14.50
2019-01-20T01:21:05.481Z,15.60
2019-01-20T01:23:31.474Z,15.30
2019-01-20T01:25:57.504Z,14.05
2019-01-20T01:28:23.500Z,13.52
2019-01-20T01:30:49.509Z,14.65
2019-01-20T01:33:15.502Z,13.63
2019-01-20T01:35:41.516Z,13.20
2019-01-20T01:38:07.499Z,13.30
2019-01-20T01:40:33.531Z,14.50
2019-01-20T01:42:59.558Z,13.10
2019-01-20T01:45:25.535Z,12.93
2019-01-20T01:47:51.581Z,12.50
2019-01-20T01:50:17.587Z,12.65
2019-01-20T01:52:43.570Z,12.25
2019-01-20T01:55:09.577Z,12.05
2019-01-20T01:57:35.572Z,13.57
2019-01-20T02:00:01.586Z,13.73
2019-01-20T02:02:27.565Z,13.88
2019-01-20T02:04:53.567Z,13.83
2019-01-20T02:07:19.545Z,13.30
2019-01-20T02:09:45.543Z,12.97
2019-01-20T02:12:11.572Z,15.25
2019-01-20T02:14:37.566Z,13.05
2019-01-20T02:17:03.532Z,14.67
2019-01-20T02:19:29.538Z,15.80
2019-01-20T02:21:55.509Z,14.35
2019-01-20T02:24:21.618Z,14.10
2019-01-20T02:26:47.597Z,14.48
2019-01-20T02:29:13.600Z,13.83
2019-01-20T02:31:39.623Z,13.98
2019-01-20T02:34:05.610Z,15.25
2019-01-20T02:36:31.614Z,16.08
2019-01-20T02:38:57.614Z,14.40
2019-01-20T02:41:23.582Z,14.43
2019-01-20T02:43:49.571Z,14.87
2019-01-20T02:46:15.574Z,13.80
2019-01-20T02:48:41.554Z,13.70
2019-01-20T02:51:07.549Z,15.93
2019-01-20T02:53:33.549Z,14.27
2019-01-20T02:55:59.516Z,14.80
2019-01-20T02:58:25.519Z,14.50
2019-01-20T03:00:51.491Z,14.93
2019-01-20T03:03:17.473Z,14.00
2019-01-20T03:05:43.475Z,14.97
2019-01-20T03:08:09.447Z,15.43
2019-01-20T03:10:35.452Z,14.63
2019-01-20T03:13:01.439Z,13.80
2019-01-20T03:15:29.317Z,14.20
2019-01-20T03:17:53.514Z,13.65
2019-01-20T03:20:19.588Z,13.62
2019-01-20T03:22:45.673Z,12.85
2019-01-20T03:25:11.723Z,13.90
2019-01-20T03:27:37.734Z,15.23
2019-01-20T03:30:05.586Z,14.15
2019-01-20T03:32:31.703Z,14.57
2019-01-20T03:34:57.709Z,13.25
2019-01-20T03:37:23.715Z,13.57
2019-01-20T03:39:49.720Z,14.10
2019-01-20T03:42:15.762Z,13.38
2019-01-20T03:44:41.784Z,13.25
2019-01-20T03:47:07.857Z,13.10
2019-01-20T03:49:33.911Z,12.70
2019-01-20T03:51:59.927Z,12.90
2019-01-20T03:54:25.912Z,13.88
2019-01-20T03:57:02.656Z,12.37
2019-01-20T03:59:29.395Z,13.27
2019-01-20T04:01:56.130Z,13.38
2019-01-20T04:04:22.887Z,12.63
2019-01-20T04:06:48.899Z,12.10
2019-01-20T04:09:15.638Z,13.77
2019-01-20T04:11:42.387Z,12.37
2019-01-20T04:14:08.394Z,14.13
2019-01-20T04:16:34.409Z,13.98
2019-01-20T04:19:00.402Z,13.75
2019-01-20T04:21:26.423Z,14.57
2019-01-20T04:23:52.447Z,13.75
2019-01-20T04:26:18.456Z,13.68
2019-01-20T04:28:44.447Z,14.90
2019-01-20T04:31:10.569Z,13.20
2019-01-20T04:33:36.550Z,14.35
2019-01-20T04:36:02.543Z,13.57
2019-01-20T04:38:28.551Z,12.70
2019-01-20T04:40:54.548Z,14.05
2019-01-20T04:43:20.540Z,14.35
2019-01-20T04:45:46.539Z,15.85
2019-01-20T04:48:12.561Z,14.07
2019-01-20T04:50:38.558Z,13.50
2019-01-20T04:53:04.533Z,14.05
2019-01-20T04:55:30.549Z,13.03
2019-01-20T04:57:56.554Z,14.05
2019-01-20T05:00:23.479Z,14.27
2019-01-20T05:02:49.510Z,13.65
2019-01-20T05:05:15.518Z,14.77
2019-01-20T05:07:41.521Z,14.60
2019-01-20T05:10:08.522Z,14.95
2019-01-20T05:12:37.789Z,14.98
2019-01-20T05:15:00.685Z,14.77
2019-01-20T05:17:26.890Z,15.13
2019-01-20T05:19:52.962Z,15.02
2019-01-20T05:22:18.987Z,14.57
2019-01-20T05:24:45.010Z,15.13
2019-01-20T05:27:11.017Z,15.82
2019-01-20T05:29:37.011Z,14.57
2019-01-20T05:32:03.024Z,16.10
2019-01-20T05:34:29.015Z,15.07
2019-01-20T05:36:55.011Z,15.77
2019-01-20T05:39:21.011Z,15.20
2019-01-20T05:41:46.995Z,16.48
2019-01-20T05:44:12.994Z,14.63
2019-01-20T05:46:39.002Z,14.63
2019-01-20T05:49:37.308Z,19.30
2019-01-20T05:52:03.328Z,17.75
2019-01-20T05:54:29.358Z,16.20
2019-01-20T05:56:55.369Z,17.45
2019-01-20T05:59:21.448Z,17.23
2019-01-20T06:01:47.476Z,17.98
2019-01-20T06:04:13.557Z,18.08
2019-01-20T06:06:39.574Z,18.75
2019-01-20T06:09:05.658Z,17.52
2019-01-20T06:11:31.704Z,18.33
2019-01-20T06:13:57.741Z,18.33
2019-01-20T06:16:23.747Z,18.37
2019-01-20T06:18:49.759Z,18.98
2019-01-20T06:21:15.791Z,18.80
2019-01-20T06:23:41.774Z,19.35
2019-01-20T06:26:07.773Z,18.57
2019-01-20T06:28:33.874Z,18.98
2019-01-20T06:30:59.866Z,20.88
2019-01-20T06:33:25.867Z,21.40
2019-01-20T06:35:51.885Z,20.40
2019-01-20T06:38:17.868Z,20.37
2019-01-20T06:40:43.866Z,19.90
2019-01-20T06:43:09.880Z,19.12
2019-01-20T06:45:35.870Z,20.60
2019-01-20T06:48:01.855Z,19.67
2019-01-20T06:50:27.872Z,19.58
2019-01-20T06:52:53.863Z,20.30
2019-01-20T06:55:19.851Z,18.12
2019-01-20T06:57:45.866Z,22.45
2019-01-20T07:00:16.686Z,19.15
2019-01-20T07:02:42.674Z,17.55
2019-01-20T07:05:08.687Z,17.73
2019-01-20T07:07:34.699Z,19.05
2019-01-20T07:10:00.742Z,19.62
2019-01-20T07:12:26.739Z,21.10
2019-01-20T07:14:52.720Z,20.25
2019-01-20T07:17:18.710Z,20.70
2019-01-20T07:19:44.746Z,22.52
2019-01-20T07:22:10.774Z,22.27
2019-01-20T07:24:36.766Z,23.12
2019-01-20T07:27:02.769Z,18.00
2019-01-20T07:29:28.772Z,17.35
2019-01-20T07:31:54.801Z,16.47
2019-01-20T07:34:20.786Z,16.55
2019-01-20T07:36:46.784Z,16.85
2019-01-20T07:39:12.884Z,17.83
2019-01-20T07:41:38.879Z,15.80
2019-01-20T07:44:04.854Z,16.67
2019-01-20T07:46:30.937Z,16.60
2019-01-20T07:48:56.932Z,16.50
2019-01-20T07:51:22.931Z,15.77
2019-01-20T07:53:48.939Z,16.12
2019-01-20T07:56:14.967Z,19.60
2019-01-20T07:58:40.983Z,19.17
2019-01-20T08:01:06.981Z,21.60
2019-01-20T08:03:32.999Z,20.30
2019-01-20T08:05:58.992Z,17.70
2019-01-20T08:08:24.970Z,18.20
2019-01-20T08:10:50.968Z,18.30
2019-01-20T08:13:24.063Z,22.05
2019-01-20T08:15:43.011Z,18.77
2019-01-20T08:18:09.008Z,22.67
2019-01-20T08:20:34.990Z,18.08
2019-01-20T08:23:01.030Z,17.43
2019-01-20T08:25:27.015Z,19.60
2019-01-20T08:27:53.023Z,16.40
2019-01-20T08:30:19.935Z,19.62
2019-01-20T08:32:45.946Z,18.05
2019-01-20T08:35:11.935Z,17.73
2019-01-20T08:37:37.940Z,19.70
2019-01-20T08:40:03.928Z,19.33
2019-01-20T08:42:29.935Z,17.10
2019-01-20T08:44:55.986Z,16.92
2019-01-20T08:47:22.024Z,18.37
2019-01-20T08:49:48.014Z,16.65
2019-01-20T08:52:14.014Z,17.17
2019-01-20T08:54:40.012Z,18.77
2019-01-20T08:57:06.028Z,19.58
2019-01-20T08:59:32.014Z,17.65
2019-01-20T09:01:58.158Z,17.03
2019-01-20T09:04:24.203Z,19.40
2019-01-20T09:06:50.224Z,17.07
2019-01-20T09:09:16.247Z,19.62
2019-01-20T09:11:42.271Z,18.10
2019-01-20T09:14:08.242Z,18.58
2019-01-20T09:16:34.250Z,19.62
2019-01-20T09:19:00.271Z,18.45
2019-01-20T09:21:26.386Z,21.08
2019-01-20T09:23:52.435Z,22.23
2019-01-20T09:26:18.513Z,20.33
2019-01-20T09:28:44.534Z,18.00
2019-01-20T09:31:10.568Z,16.83
2019-01-20T09:33:36.571Z,17.20
2019-01-20T09:36:02.601Z,17.50
2019-01-20T09:38:28.636Z,16.55
2019-01-20T09:40:54.695Z,18.85
2019-01-20T09:43:27.570Z,17.73
2019-01-20T09:45:53.719Z,17.30
2019-01-20T09:48:19.748Z,17.00
2019-01-20T09:50:45.782Z,15.63
2019-01-20T09:53:11.782Z,16.10
2019-01-20T09:55:37.906Z,19.70
2019-01-20T09:58:03.902Z,17.05
2019-01-20T10:00:30.835Z,16.15
2019-01-20T10:02:56.951Z,15.80
2019-01-20T10:05:23.054Z,16.37
2019-01-20T10:07:49.180Z,19.33
2019-01-20T10:10:15.170Z,17.42
2019-01-20T10:12:41.159Z,17.03
2019-01-20T10:15:08.011Z,15.07
2019-01-20T10:17:34.014Z,20.60
2019-01-20T10:20:00.026Z,25.23
2019-01-20T10:22:26.087Z,33.25
2019-01-20T10:24:52.071Z,29.85
2019-01-20T10:27:18.091Z,18.60
2019-01-20T10:29:44.107Z,19.70
2019-01-20T10:32:10.130Z,18.33
2019-01-20T10:34:36.150Z,19.73
2019-01-20T10:37:02.159Z,17.80
2019-01-20T10:39:28.222Z,20.05
2019-01-20T10:41:54.274Z,19.60
2019-01-20T10:44:27.240Z,18.87
2019-01-20T10:46:53.237Z,21.17
2019-01-20T10:49:19.258Z,19.63
2019-01-20T10:51:45.321Z,17.95
2019-01-20T10:54:11.331Z,19.45
2019-01-20T10:56:37.382Z,18.27
2019-01-20T10:59:03.403Z,18.08
2019-01-20T11:01:29.436Z,20.90
2019-01-20T11:03:55.451Z,18.15
2019-01-20T11:06:21.452Z,19.75
2019-01-20T11:08:47.459Z,20.30
2019-01-20T11:11:13.480Z,17.95
2019-01-20T11:13:39.483Z,21.23
2019-01-20T11:16:05.522Z,19.10
2019-01-20T11:18:31.533Z,20.95
2019-01-20T11:20:57.520Z,20.58
2019-01-20T11:23:23.573Z,21.60
2019-01-20T11:25:49.611Z,21.12
2019-01-20T11:28:15.627Z,18.83
2019-01-20T11:30:41.674Z,21.50
2019-01-20T11:33:07.747Z,20.37
2019-01-20T11:38:05.671Z,20.42
2019-01-20T11:40:31.854Z,19.42
2019-01-20T11:42:57.962Z,18.98
2019-01-20T11:45:23.961Z,20.05
2019-01-20T11:47:49.974Z,22.05
2019-01-20T11:50:15.986Z,20.58
2019-01-20T11:52:42.063Z,19.48
2019-01-20T11:55:08.063Z,21.15
2019-01-20T11:57:34.070Z,21.73
2019-01-20T12:00:00.091Z,22.17
2019-01-20T12:02:26.070Z,20.27
2019-01-20T12:04:52.072Z,20.60
2019-01-20T12:07:18.090Z,20.35
2019-01-20T12:09:44.090Z,21.58
2019-01-20T12:12:10.098Z,21.47
2019-01-20T12:14:36.156Z,21.00
2019-01-20T12:17:02.217Z,22.98
2019-01-20T12:19:28.218Z,21.27
2019-01-20T12:21:54.223Z,23.17
2019-01-20T12:24:20.253Z,22.10
2019-01-20T12:26:46.268Z,21.75
2019-01-20T12:29:12.258Z,21.30
2019-01-20T12:31:38.267Z,24.13
2019-01-20T12:34:04.326Z,22.23
2019-01-20T12:36:30.360Z,20.33
2019-01-20T12:38:56.431Z,22.37
2019-01-20T12:41:22.447Z,20.58
2019-01-20T12:43:48.479Z,22.40
2019-01-20T12:46:14.536Z,20.27
2019-01-20T12:48:40.532Z,21.10
2019-01-20T12:51:06.533Z,21.53
2019-01-20T12:53:32.527Z,20.45
2019-01-20T12:55:58.563Z,22.30
2019-01-20T12:58:24.567Z,22.80
2019-01-20T13:00:50.571Z,20.27
2019-01-20T13:03:16.579Z,20.20
2019-01-20T13:05:42.577Z,21.42
2019-01-20T13:08:08.599Z,20.17
2019-01-20T13:10:34.630Z,21.10
2019-01-20T13:13:00.667Z,20.17
2019-01-20T13:15:26.681Z,20.23
2019-01-20T13:17:52.731Z,18.67
2019-01-20T13:20:19.616Z,19.77
2019-01-20T13:22:45.646Z,19.45
2019-01-20T13:25:11.669Z,21.10
2019-01-20T13:27:37.719Z,19.92
2019-01-20T13:30:03.739Z,21.37
2019-01-20T13:32:29.785Z,21.65
2019-01-20T13:34:55.789Z,19.37
2019-01-20T13:37:21.844Z,21.98
2019-01-20T13:39:47.885Z,20.92
2019-01-20T13:42:13.882Z,22.50
2019-01-20T13:44:46.067Z,22.00
2019-01-20T13:47:06.097Z,18.60
2019-01-20T13:49:32.130Z,18.70
2019-01-20T13:51:58.278Z,19.15
2019-01-20T13:54:24.342Z,20.30
2019-01-20T13:56:50.364Z,19.62
2019-01-20T13:59:16.364Z,21.48
2019-01-20T14:01:42.382Z,19.63
2019-01-20T14:04:08.389Z,22.10
2019-01-20T14:06:34.413Z,21.95
2019-01-20T14:09:00.460Z,20.73
2019-01-20T14:11:26.456Z,21.12
2019-01-20T14:13:52.485Z,19.87
2019-01-20T14:16:18.511Z,20.37
2019-01-20T14:18:45.305Z,21.42
2019-01-20T14:21:10.515Z,21.20
2019-01-20T14:23:36.565Z,21.62
2019-01-20T14:26:02.621Z,19.75
2019-01-20T14:28:28.646Z,21.62
2019-01-20T14:30:54.687Z,21.05
2019-01-20T14:33:20.835Z,22.50
2019-01-20T14:35:46.903Z,22.35
2019-01-20T14:38:12.907Z,22.92
2019-01-20T14:40:38.987Z,21.15
2019-01-20T14:43:05.084Z,20.73
2019-01-20T14:45:31.093Z,23.75
2019-01-20T14:47:57.115Z,25.08
2019-01-20T14:50:24.996Z,25.17
2019-01-20T14:52:51.016Z,25.80
2019-01-20T14:55:17.142Z,22.98
2019-01-20T14:57:43.284Z,26.02
2019-01-20T15:00:10.168Z,24.58
2019-01-20T15:02:36.259Z,22.90
2019-01-20T15:05:02.323Z,24.77
2019-01-20T15:07:29.419Z,21.90
2019-01-20T15:09:55.532Z,22.08
2019-01-20T15:12:21.592Z,22.30
2019-01-20T15:14:47.678Z,22.58
2019-01-20T15:17:13.811Z,25.58
2019-01-20T15:19:39.912Z,26.25
2019-01-20T15:22:05.951Z,24.70
2019-01-20T15:24:31.992Z,21.50
2019-01-20T15:26:58.200Z,26.02
2019-01-20T15:29:24.237Z,27.98
2019-01-20T15:31:50.288Z,24.63
2019-01-20T15:34:16.360Z,34.90
2019-01-20T15:36:42.395Z,26.75
2019-01-20T15:39:08.398Z,22.80
2019-01-20T15:41:34.423Z,21.17
2019-01-20T15:44:00.429Z,21.42
2019-01-20T15:46:26.468Z,19.87
2019-01-20T15:48:59.439Z,24.20
2019-01-20T15:51:25.525Z,25.80
2019-01-20T15:53:51.584Z,27.17
2019-01-20T15:56:17.633Z,29.90
2019-01-20T15:58:43.610Z,36.90
2019-01-20T16:01:09.617Z,28.00
2019-01-20T16:03:35.614Z,34.90
2019-01-20T16:06:01.585Z,31.90
2019-01-20T16:08:27.557Z,31.17
2019-01-20T16:10:53.530Z,24.73
2019-01-20T16:13:19.536Z,27.00
2019-01-20T16:15:45.574Z,26.40
2019-01-20T16:18:14.386Z,25.42
2019-01-20T16:20:37.571Z,26.42
2019-01-20T16:23:03.614Z,22.13
2019-01-20T16:25:29.568Z,19.73
2019-01-20T16:27:55.537Z,20.80
2019-01-20T16:30:22.447Z,22.33
2019-01-20T16:32:49.347Z,22.42
2019-01-20T16:35:15.557Z,22.60
2019-01-20T16:37:41.587Z,25.30
2019-01-20T16:40:08.449Z,27.20
2019-01-20T16:42:34.453Z,33.10
2019-01-20T16:45:00.417Z,29.25
2019-01-20T16:47:26.455Z,23.87
2019-01-20T16:49:52.489Z,24.67
2019-01-20T16:52:18.489Z,25.30
2019-01-20T16:54:44.540Z,24.65
2019-01-20T16:57:10.537Z,21.92
2019-01-20T16:59:36.556Z,21.57
2019-01-20T17:02:02.529Z,19.37
2019-01-20T17:04:29.207Z,20.60
2019-01-20T17:06:54.742Z,18.12
2019-01-20T17:09:20.726Z,19.02
2019-01-20T17:11:46.717Z,18.87
2019-01-20T17:14:12.726Z,19.55
2019-01-20T17:16:39.469Z,18.67
2019-01-20T17:19:05.645Z,18.77
2019-01-20T17:21:31.695Z,18.90
2019-01-20T17:23:57.688Z,20.85
2019-01-20T17:26:23.785Z,23.02
2019-01-20T17:28:49.821Z,26.70
2019-01-20T17:31:15.860Z,29.37
2019-01-20T17:33:41.891Z,36.05
2019-01-20T17:36:07.922Z,28.65
2019-01-20T17:38:33.946Z,24.33
2019-01-20T17:40:59.897Z,25.42
2019-01-20T17:43:25.898Z,25.27
2019-01-20T17:45:51.890Z,27.27
2019-01-20T17:48:17.885Z,24.87
2019-01-20T17:50:43.904Z,26.95
2019-01-20T17:53:10.622Z,21.08
2019-01-20T17:55:36.639Z,22.75
2019-01-20T17:58:03.375Z,24.45
2019-01-20T18:00:29.355Z,25.27
2019-01-20T18:02:55.373Z,24.43
2019-01-20T18:05:21.354Z,23.40
2019-01-20T18:07:48.093Z,25.62
2019-01-20T18:10:14.837Z,26.92
2019-01-20T18:12:40.973Z,32.78
2019-01-20T18:15:07.905Z,33.90
2019-01-20T18:17:33.921Z,26.37
2019-01-20T18:19:59.943Z,28.98
2019-01-20T18:22:25.948Z,26.27
2019-01-20T18:24:51.952Z,26.80
2019-01-20T18:27:17.922Z,26.60
2019-01-20T18:29:43.949Z,43.28
2019-01-20T18:32:09.929Z,38.83
2019-01-20T18:34:36.303Z,36.53
2019-01-20T18:37:02.669Z,34.90
2019-01-20T18:39:28.951Z,34.92
2019-01-20T18:41:55.362Z,31.00
2019-01-20T18:44:21.943Z,33.50
2019-01-20T18:46:48.574Z,33.50
2019-01-20T18:49:15.840Z,33.67
2019-01-20T18:51:41.968Z,34.20
2019-01-20T18:54:08.578Z,38.15
2019-01-20T18:56:35.059Z,31.40
2019-01-20T18:59:01.766Z,29.98
2019-01-20T19:01:28.362Z,30.73
2019-01-20T19:03:54.731Z,32.55
2019-01-20T19:06:20.922Z,31.23
2019-01-20T19:08:47.244Z,30.45
2019-01-20T19:11:13.863Z,31.55
2019-01-20T19:13:40.572Z,33.58
2019-01-20T19:16:09.094Z,37.60
2019-01-20T19:18:33.711Z,34.33
2019-01-20T19:21:01.018Z,30.55
2019-01-20T19:23:27.558Z,29.52
2019-01-20T19:25:53.888Z,27.17
2019-01-20T19:28:20.723Z,29.67
2019-01-20T19:30:47.332Z,31.67
2019-01-20T19:33:13.843Z,28.50
2019-01-20T19:35:41.151Z,28.12
2019-01-20T19:38:07.731Z,30.30
2019-01-20T19:40:34.692Z,28.58
2019-01-20T19:43:01.797Z,29.98
2019-01-20T19:45:28.851Z,33.10
2019-01-20T19:47:55.969Z,29.77
2019-01-20T19:50:23.067Z,30.10
2019-01-20T19:52:49.509Z,30.33
2019-01-20T19:55:20.090Z,30.75
2019-01-20T19:57:47.351Z,29.48
2019-01-20T20:00:18.788Z,32.03
2019-01-20T20:02:45.423Z,33.88
2019-01-20T20:05:11.927Z,33.22
2019-01-20T20:07:39.206Z,34.33
2019-01-20T20:10:06.482Z,32.45
2019-01-20T20:12:33.650Z,34.28
2019-01-20T20:15:00.506Z,31.48
2019-01-20T20:17:27.701Z,31.42
2019-01-20T20:19:55.194Z,29.98
2019-01-20T20:22:23.058Z,33.70
2019-01-20T20:24:50.873Z,37.72
2019-01-20T20:27:18.084Z,38.50
2019-01-20T20:29:45.037Z,33.60
2019-01-20T20:32:11.573Z,31.40
2019-01-20T20:34:38.242Z,31.20
2019-01-20T20:37:04.722Z,35.90
2019-01-20T20:39:31.854Z,33.08
2019-01-20T20:41:58.334Z,29.15
2019-01-20T20:44:24.875Z,29.50
2019-01-20T20:46:52.502Z,28.80
2019-01-20T20:49:19.132Z,27.77
2019-01-20T20:51:46.181Z,28.10
2019-01-20T20:54:12.811Z,29.95
2019-01-20T20:56:39.790Z,27.65
2019-01-20T20:59:06.910Z,29.80
2019-01-20T21:01:33.148Z,29.73
2019-01-20T21:03:59.364Z,31.08
2019-01-20T21:06:25.597Z,28.58
2019-01-20T21:08:51.960Z,28.70
2019-01-20T21:11:18.529Z,28.35
2019-01-20T21:13:44.711Z,32.60
2019-01-20T21:16:10.889Z,27.50
2019-01-20T21:18:37.054Z,29.15
2019-01-20T21:21:03.454Z,29.37
2019-01-20T21:23:29.705Z,26.17
2019-01-20T21:25:55.907Z,28.62
2019-01-20T21:28:22.035Z,29.87
2019-01-20T21:30:48.275Z,32.42
2019-01-20T21:33:14.421Z,35.75
2019-01-20T21:35:40.612Z,33.50
2019-01-20T21:38:07.199Z,28.87
2019-01-20T21:40:33.242Z,29.83
2019-01-20T21:42:59.400Z,28.73
2019-01-20T21:45:25.722Z,29.27
2019-01-20T21:47:52.608Z,30.88
2019-01-20T21:50:19.736Z,30.48
2019-01-20T21:52:45.880Z,28.87
2019-01-20T21:55:12.074Z,29.75
2019-01-20T21:57:38.387Z,29.90
2019-01-20T22:00:04.667Z,29.90
2019-01-20T22:02:31.988Z,29.17
2019-01-20T22:04:58.212Z,31.37
2019-01-20T22:07:24.439Z,28.48
2019-01-20T22:09:50.637Z,25.27
2019-01-20T22:12:16.790Z,29.40
2019-01-20T22:14:42.901Z,28.15
2019-01-20T22:17:09.433Z,28.70
2019-01-20T22:19:35.626Z,29.27
2019-01-20T22:22:01.932Z,27.67
2019-01-20T22:24:28.126Z,28.12
2019-01-20T22:26:54.354Z,27.45
2019-01-20T22:29:20.530Z,25.98
2019-01-20T22:31:46.706Z,30.73
2019-01-20T22:34:12.941Z,30.65
2019-01-20T22:36:39.185Z,29.10
2019-01-20T22:39:05.388Z,28.52
2019-01-20T22:41:31.561Z,27.75
2019-01-20T22:43:57.849Z,26.08
2019-01-20T22:46:23.957Z,26.17
2019-01-20T22:48:51.024Z,27.52
2019-01-20T22:51:17.185Z,27.92
2019-01-20T22:53:43.375Z,30.05
2019-01-20T22:56:09.483Z,31.45
2019-01-20T22:58:35.710Z,34.30
2019-01-20T23:01:01.871Z,37.20
2019-01-20T23:03:28.081Z,36.30
2019-01-20T23:05:54.195Z,34.33
2019-01-20T23:08:20.504Z,32.97
2019-01-20T23:10:46.654Z,33.63
2019-01-20T23:13:12.864Z,30.58
2019-01-20T23:15:39.054Z,26.98
2019-01-20T23:18:05.324Z,28.48
2019-01-20T23:20:31.515Z,25.73
2019-01-20T23:22:57.711Z,26.42
2019-01-20T23:25:23.915Z,26.25
2019-01-20T23:27:50.102Z,24.95
2019-01-20T23:30:16.269Z,24.45
2019-01-20T23:32:43.177Z,24.48
2019-01-20T23:35:09.352Z,25.05
2019-01-20T23:37:35.580Z,26.42
2019-01-20T23:40:01.811Z,25.50
2019-01-20T23:42:28.058Z,23.25
2019-01-20T23:44:54.296Z,23.38
2019-01-20T23:47:20.473Z,23.17
2019-01-20T23:49:46.777Z,25.42
2019-01-20T23:52:13.039Z,23.35
2019-01-20T23:54:39.248Z,25.27
2019-01-20T23:57:05.421Z,25.23
2019-01-20T23:59:31.582Z,24.70
